createdAt,value
2023-01-30T00:00:19.505Z,6.06
2023-01-30T00:10:25.968Z,6.02
2023-01-30T00:20:29.199Z,6.12
2023-01-30T00:30:33.250Z,6.17
2023-01-30T00:40:35.871Z,6.36
2023-01-30T00:50:45.826Z,6.39
2023-01-30T01:00:48.689Z,6.39
2023-01-30T01:10:52.756Z,6.52
2023-01-30T01:20:55.394Z,6.51
2023-01-30T01:30:59.512Z,6.28
2023-01-30T01:41:06.196Z,6.28
2023-01-30T01:51:16.604Z,6.45
2023-01-30T02:01:19.285Z,6.55
2023-01-30T02:11:30.508Z,6.67
2023-01-30T02:22:13.288Z,6.75
2023-01-30T02:32:25.894Z,6.78
2023-01-30T02:42:35.512Z,6.85
2023-01-30T02:52:40.672Z,6.91
2023-01-30T03:03:07.459Z,7.04
2023-01-30T03:13:18.532Z,7.15
2023-01-30T03:23:21.329Z,7.28
2023-01-30T03:33:25.298Z,7.42
2023-01-30T03:43:27.968Z,7.38
2023-01-30T03:53:31.956Z,7.59
2023-01-30T04:03:35.485Z,7.60
2023-01-30T04:13:39.429Z,7.55
2023-01-30T04:23:42.621Z,7.64
2023-01-30T04:33:46.621Z,7.38
2023-01-30T04:43:49.296Z,7.01
2023-01-30T04:53:53.374Z,6.81
2023-01-30T05:03:56.395Z,6.86
2023-01-30T05:14:00.743Z,7.08
2023-01-30T05:24:03.372Z,6.86
2023-01-30T05:34:07.341Z,6.71
2023-01-30T05:44:11.711Z,6.64
2023-01-30T05:54:16.630Z,6.86
2023-01-30T06:04:19.258Z,6.70
2023-01-30T06:14:23.249Z,6.65
2023-01-30T06:24:25.853Z,6.84
2023-01-30T06:34:29.839Z,6.74
2023-01-30T06:44:32.470Z,6.72
2023-01-30T06:54:36.484Z,6.99
2023-01-30T07:04:39.072Z,6.96
2023-01-30T07:14:43.078Z,6.96
2023-01-30T07:24:45.811Z,6.68
2023-01-30T07:34:49.812Z,6.68
2023-01-30T07:44:52.422Z,6.72
2023-01-30T07:54:56.500Z,6.95
2023-01-30T08:04:59.164Z,6.90
2023-01-30T08:15:03.227Z,7.18
2023-01-30T08:25:06.788Z,7.25
2023-01-30T08:35:11.617Z,7.37
2023-01-30T08:45:14.393Z,7.33
2023-01-30T08:55:19.001Z,7.61
2023-01-30T09:05:21.611Z,7.48
2023-01-30T09:15:25.585Z,7.92
2023-01-30T09:25:28.348Z,8.03
2023-01-30T09:35:32.510Z,7.83
2023-01-30T09:45:46.620Z,8.02
2023-01-30T09:55:51.168Z,7.22
2023-01-30T10:05:56.819Z,7.52
2023-01-30T10:16:07.178Z,7.67
2023-01-30T10:26:12.727Z,7.34
2023-01-30T10:36:23.698Z,6.67
2023-01-30T10:46:40.537Z,6.34
2023-01-30T10:56:51.845Z,5.74
2023-01-30T11:06:56.696Z,6.57
2023-01-30T11:17:02.500Z,7.27
2023-01-30T11:27:11.442Z,8.05
2023-01-30T11:37:24.556Z,8.31
2023-01-30T11:47:29.680Z,7.70
2023-01-30T11:57:41.262Z,8.57
2023-01-30T12:07:46.492Z,8.44
2023-01-30T12:17:58.357Z,8.28
2023-01-30T12:28:05.496Z,8.58
2023-01-30T12:38:23.077Z,8.51
2023-01-30T12:49:13.733Z,8.86
2023-01-30T12:59:20.123Z,8.31
2023-01-30T13:09:40.243Z,8.85
2023-01-30T13:19:49.908Z,8.63
2023-01-30T13:29:54.030Z,8.61
2023-01-30T13:40:00.498Z,8.86
2023-01-30T13:50:24.446Z,9.07
2023-01-30T14:00:32.110Z,10.45
2023-01-30T14:10:35.833Z,10.78
2023-01-30T14:20:45.312Z,11.71
2023-01-30T14:30:49.405Z,10.10
2023-01-30T14:41:27.156Z,9.07
2023-01-30T14:51:35.813Z,8.57
2023-01-30T15:02:05.991Z,8.01
2023-01-30T15:12:27.534Z,7.65
2023-01-30T15:22:40.506Z,8.03
2023-01-30T15:32:45.488Z,7.75
2023-01-30T15:42:50.957Z,7.71
2023-01-30T15:52:56.467Z,7.45
2023-01-30T16:03:01.752Z,7.57
2023-01-30T16:13:05.792Z,7.71
2023-01-30T16:23:21.415Z,7.72
2023-01-30T16:33:25.673Z,7.16
2023-01-30T16:43:29.944Z,7.13
2023-01-30T16:53:34.715Z,6.73
2023-01-30T17:03:39.351Z,6.79
2023-01-30T17:13:43.869Z,6.91
2023-01-30T17:23:49.847Z,6.95
2023-01-30T17:33:54.113Z,6.93
2023-01-30T17:43:56.914Z,6.94
2023-01-30T17:54:00.954Z,7.07
2023-01-30T18:04:03.696Z,6.99
2023-01-30T18:14:07.690Z,6.87
2023-01-30T18:24:10.488Z,6.71
2023-01-30T18:34:14.563Z,6.70
2023-01-30T18:44:17.240Z,6.48
2023-01-30T18:54:21.220Z,6.35
2023-01-30T19:04:23.880Z,6.43
2023-01-30T19:14:27.978Z,6.53
2023-01-30T19:24:30.618Z,6.51
2023-01-30T19:34:34.574Z,6.59
2023-01-30T19:44:37.674Z,6.68
2023-01-30T19:54:41.754Z,6.64
2023-01-30T20:04:44.406Z,6.60
2023-01-30T20:14:48.400Z,6.41
2023-01-30T20:24:51.088Z,6.35
2023-01-30T20:34:55.083Z,6.61
2023-01-30T20:44:57.783Z,6.72
2023-01-30T20:55:01.846Z,6.65
2023-01-30T21:05:06.113Z,6.71
2023-01-30T21:15:10.697Z,6.44
2023-01-30T21:25:13.378Z,6.26
2023-01-30T21:35:18.217Z,5.77
2023-01-30T21:45:21.822Z,5.55
2023-01-30T21:55:26.946Z,5.50
2023-01-30T22:05:36.537Z,5.37
2023-01-30T22:15:40.756Z,5.12
2023-01-30T22:25:45.069Z,5.03
2023-01-30T22:35:51.185Z,5.19
2023-01-30T22:46:00.721Z,5.62
2023-01-30T22:56:06.788Z,5.81
2023-01-30T23:06:11.985Z,5.52
2023-01-30T23:16:17.179Z,5.48
2023-01-30T23:26:19.909Z,5.70
2023-01-30T23:36:24.334Z,5.67
2023-01-30T23:46:28.483Z,5.74
2023-01-30T23:56:35.485Z,5.50
